Flight Track Log - Related Links

Times and Time Zones

All times are in EDT time to prevent confusion due to time zone crossing. See the DAL676 flight status page for this flight to view local times or setup timezone preferences in your user account.

Time Position Orientation Groundspeed Altitude Reporting Facility
EDT Latitude Longitude Course Direction KTS MPH feet Rate Location/Type
Mon 01:19:04 PM 18.3333 -64.9333 353° North 160 184 1,000  Level San Juan Center
Mon 01:20:04 PM 18.2833 -64.9167 162° South 200 230 3,200 2,100 Climbing San Juan Center
Mon 01:21:04 PM 18.2500 -64.9833 242° Southwest 280 322 5,200 2,579 Climbing San Juan Center
Mon 01:22:00 PM 18.4712 -65.2714 348° North  Level FlightAware Approximate
Mon 01:22:05 PM 18.2667 -65.0667 282° West 290 334 8,400  Level San Juan Center
Mon 01:23:00 PM 18.5812 -65.2958 348° North  Level FlightAware Approximate
Mon 01:23:05 PM 18.3500 -65.1000 339° North 320 368 11,000  Level San Juan Center
Mon 01:24:00 PM 18.6926 -65.3123 353° North  Level FlightAware Approximate
Mon 01:24:05 PM 18.4333 -65.1167 349° North 360 414 12,200  Level San Juan Center
Mon 01:25:05 PM 18.5333 -65.1333 351° North 380 437 14,300 1,750 Climbing San Juan Center
Mon 01:26:05 PM 18.6500 -65.1667 345° North 420 483 15,700 1,700 Climbing San Juan Center
Mon 01:27:05 PM 18.7667 -65.2000 345° North 430 495 17,700 1,835 Climbing San Juan Center
Mon 01:28:06 PM 18.9000 -65.2333 347° North 440 506 19,400 1,537 Climbing San Juan Center
Mon 01:29:06 PM 19.0000 -65.2500 351° North 450 518 20,800 1,462 Climbing San Juan Center
Mon 01:30:05 PM 19.1333 -65.2833 347° North 460 529 22,300 1,450 Climbing San Juan Center
Mon 01:31:06 PM 19.2667 -65.3167 347° North 470 541 23,700 1,339 Climbing San Juan Center
Mon 01:32:06 PM 19.4000 -65.3500 347° North 480 552 25,000 1,350 Climbing San Juan Center
Mon 01:33:06 PM 19.5333 -65.3833 347° North 490 564 26,400 1,450 Climbing San Juan Center
Mon 01:34:06 PM 19.6500 -65.4167 345° North 480 552 27,900 1,600 Climbing San Juan Center
Mon 01:35:06 PM 19.7833 -65.4500 347° North 480 552 29,600 1,686 Climbing San Juan Center
Mon 01:36:07 PM 19.9167 -65.4833 347° North 480 552 31,300 1,587 Climbing San Juan Center
Mon 01:37:07 PM 20.0500 -65.5167 347° North 470 541 32,800 1,650 Climbing San Juan Center
Mon 01:38:07 PM 20.1667 -65.5500 345° North 460 529 34,600 1,600 Climbing San Juan Center
Mon 01:39:07 PM 20.2833 -65.5833 345° North 440 506 36,000 700 Climbing San Juan Center
Mon 01:40:07 PM 20.4167 -65.6167 347° North 450 518 36,000  Level San Juan Center
Mon 01:41:07 PM 20.5333 -65.6500 345° North 460 529 36,000  Level San Juan Center
Mon 01:42:07 PM 20.6667 -65.6833 347° North 450 518 36,000  Level San Juan Center
Mon 01:43:07 PM 20.7833 -65.7167 345° North 450 518 36,000  Level San Juan Center
Mon 01:44:07 PM 20.9000 -65.7500 345° North 460 529 36,000  Level San Juan Center
Mon 01:45:08 PM 21.0333 -65.8000 341° North 450 518 36,000  Level San Juan Center
Mon 01:46:08 PM 21.1500 -65.8167 352° North 450 518 36,000  Level San Juan Center
Mon 01:47:08 PM 21.2667 -65.8500 345° North 450 518 36,000  Level San Juan Center
Mon 01:48:08 PM 21.3833 -65.8833 345° North 450 518 36,000  Level San Juan Center
Mon 01:49:08 PM 21.5167 -65.9167 347° North 450 518 36,000  Level San Juan Center
Mon 01:50:08 PM 21.6333 -65.9500 345° North 460 529 36,000  Level San Juan Center
Mon 01:51:09 PM 21.7500 -65.9833 345° North 450 518 36,000  Level San Juan Center
Mon 01:52:09 PM 21.8667 -66.0167 345° North 430 495 36,000  Level San Juan Center
Mon 01:53:09 PM 22.0000 -66.0500 347° North 450 518 36,000  Level San Juan Center
Mon 01:54:26 PM 22.0500 -66.0667 343° North 472 543 36,000  Level New York Oceanic (ODAPS)
Mon 02:01:53 PM 22.9167 -66.3500 349° North 446 513 36,000  Level New York Oceanic (ODAPS)
Mon 02:35:53 PM 27.0833 -67.2500 349° North 438 504 36,000  Level New York Oceanic (ODAPS)
Mon 02:36:00 PM 27.3459 -67.2967 349° North 446 513 36,000  Level FlightAware Transoceanic
Mon 02:37:00 PM 27.4688 -67.3240 349° North 446 513 36,000  Level FlightAware Transoceanic
Mon 02:38:00 PM 27.5918 -67.3514 349° North 446 513 36,000  Level FlightAware Transoceanic
Mon 02:39:00 PM 27.7147 -67.3789 349° North 446 513 36,000  Level FlightAware Transoceanic
Mon 02:40:00 PM 27.8376 -67.4064 349° North 446 513 36,000  Level FlightAware Transoceanic
Mon 02:41:00 PM 27.9606 -67.4340 349° North 446 513 36,000  Level FlightAware Transoceanic
Mon 02:42:00 PM 28.0432 -67.4615 349° North 438 504 36,000  Level FlightAware Transoceanic
Mon 02:43:00 PM 28.1632 -67.4882 349° North 438 504 36,000  Level FlightAware Transoceanic
Mon 02:44:00 PM 28.2831 -67.5150 349° North 438 504 36,000  Level FlightAware Transoceanic
Mon 02:45:00 PM 28.4031 -67.5418 349° North 438 504 36,000  Level FlightAware Transoceanic
Mon 02:46:00 PM 28.5230 -67.5687 349° North 438 504 36,000  Level FlightAware Transoceanic
Mon 02:47:00 PM 28.6430 -67.5956 349° North 438 504 36,000  Level FlightAware Transoceanic
Mon 02:48:00 PM 28.7629 -67.6226 349° North 438 504 36,000  Level FlightAware Transoceanic
Mon 02:49:00 PM 28.8828 -67.6497 349° North 438 504 36,000  Level FlightAware Transoceanic
Mon 02:50:00 PM 29.0027 -67.6768 349° North 438 504 36,000  Level FlightAware Transoceanic
Mon 02:51:00 PM 29.1227 -67.7040 349° North 438 504 36,000  Level FlightAware Transoceanic
Mon 02:52:00 PM 29.2426 -67.7313 349° North 438 504 36,000  Level FlightAware Transoceanic
Mon 02:53:00 PM 29.3625 -67.7586 349° North 438 504 36,000  Level FlightAware Transoceanic
Mon 02:54:00 PM 29.4824 -67.7860 349° North 438 504 36,000  Level FlightAware Transoceanic
Mon 02:55:00 PM 29.6023 -67.8135 349° North 438 504 36,000  Level FlightAware Transoceanic
Mon 02:56:00 PM 29.7222 -67.8410 349° North 438 504 36,000  Level FlightAware Transoceanic
Mon 02:57:00 PM 29.8420 -67.8686 349° North 438 504 36,000  Level FlightAware Transoceanic
Mon 02:58:00 PM 29.9619 -67.8962 349° North 438 504 36,000  Level FlightAware Transoceanic
Mon 02:59:00 PM 30.0818 -67.9239 349° North 438 504 36,000  Level FlightAware Transoceanic
Mon 03:00:00 PM 30.2017 -67.9517 349° North 438 504 36,000  Level FlightAware Transoceanic
Mon 03:01:00 PM 30.3215 -67.9796 349° North 438 504 36,000  Level FlightAware Transoceanic
Mon 03:02:00 PM 30.4414 -68.0075 349° North 438 504 36,000  Level FlightAware Transoceanic
Mon 03:03:00 PM 30.5612 -68.0355 349° North 438 504 36,000  Level FlightAware Transoceanic
Mon 03:04:00 PM 30.6811 -68.0635 349° North 438 504 36,000  Level FlightAware Transoceanic
Mon 03:05:00 PM 30.8009 -68.0916 349° North 438 504 36,000  Level FlightAware Transoceanic
Mon 03:06:00 PM 30.9207 -68.1198 349° North 438 504 36,000  Level FlightAware Transoceanic
Mon 03:07:00 PM 31.0406 -68.1481 349° North 438 504 36,000  Level FlightAware Transoceanic
Mon 03:08:00 PM 31.1604 -68.1764 349° North 438 504 36,000  Level FlightAware Transoceanic
Mon 03:09:00 PM 31.2802 -68.2048 349° North 438 504 36,000  Level FlightAware Transoceanic
Mon 03:10:00 PM 31.4000 -68.2333 348° North 438 504 36,000  Level FlightAware Transoceanic
Mon 03:11:00 PM 31.5256 -68.2637 348° North 438 504 36,000  Level FlightAware Transoceanic
Mon 03:12:00 PM 31.6512 -68.2941 348° North 438 504 36,000  Level FlightAware Transoceanic
Mon 03:13:00 PM 31.7767 -68.3247 348° North 438 504 36,000  Level FlightAware Transoceanic
Mon 03:14:00 PM 31.9023 -68.3553 348° North 438 504 36,000  Level FlightAware Transoceanic
Mon 03:15:00 PM 32.0279 -68.3859 348° North 438 504 36,000  Level FlightAware Transoceanic
Mon 03:16:00 PM 32.1534 -68.4167 348° North 438 504 36,000  Level FlightAware Transoceanic
Mon 03:17:00 PM 32.2789 -68.4476 348° North 438 504 36,000  Level FlightAware Transoceanic
Mon 03:18:00 PM 32.4045 -68.4785 348° North 438 504 36,000  Level FlightAware Transoceanic
Mon 03:19:00 PM 32.5300 -68.5096 348° North 438 504 36,000  Level FlightAware Transoceanic
Mon 03:20:00 PM 32.6555 -68.5407 348° North 438 504 36,000  Level FlightAware Transoceanic
Mon 03:21:00 PM 32.7810 -68.5719 348° North 438 504 36,000  Level FlightAware Transoceanic
Mon 03:22:00 PM 32.9065 -68.6032 348° North 438 504 36,000  Level FlightAware Transoceanic
Mon 03:23:00 PM 33.0320 -68.6345 348° North 438 504 36,000  Level FlightAware Transoceanic
Mon 03:24:00 PM 33.1575 -68.6660 348° North 438 504 36,000  Level FlightAware Transoceanic
Mon 03:25:00 PM 33.2830 -68.6976 348° North 438 504 36,000  Level FlightAware Transoceanic
Mon 03:26:00 PM 33.4085 -68.7292 348° North 438 504 36,000  Level FlightAware Transoceanic
Mon 03:27:00 PM 33.5339 -68.7610 348° North 438 504 36,000  Level FlightAware Transoceanic
Mon 03:28:00 PM 33.6594 -68.7928 348° North 438 504 36,000  Level FlightAware Transoceanic
Mon 03:29:00 PM 33.7848 -68.8247 348° North 438 504 36,000  Level FlightAware Transoceanic
Mon 03:30:00 PM 33.9103 -68.8568 348° North 438 504 36,000  Level FlightAware Transoceanic
Mon 03:31:00 PM 34.0357 -68.8889 348° North 438 504 36,000  Level FlightAware Transoceanic
Mon 03:32:00 PM 34.1611 -68.9211 348° North 438 504 36,000  Level FlightAware Transoceanic
Mon 03:33:00 PM 34.2865 -68.9534 348° North 438 504 36,000  Level FlightAware Transoceanic
Mon 03:34:00 PM 34.4119 -68.9858 348° North 438 504 36,000  Level FlightAware Transoceanic
Mon 03:35:00 PM 34.5373 -69.0183 348° North 438 504 36,000  Level FlightAware Transoceanic
Mon 03:36:00 PM 34.6627 -69.0509 348° North 438 504 36,000  Level FlightAware Transoceanic
Mon 03:37:00 PM 34.7881 -69.0836 348° North 438 504 36,000  Level FlightAware Transoceanic
Mon 03:38:00 PM 34.9135 -69.1164 348° North 438 504 36,000  Level FlightAware Transoceanic
Mon 03:39:00 PM 35.0388 -69.1493 348° North 438 504 36,000  Level FlightAware Transoceanic
Mon 03:40:00 PM 35.1642 -69.1823 348° North 438 504 36,000  Level FlightAware Transoceanic
Mon 03:41:00 PM 35.2895 -69.2154 348° North 438 504 36,000  Level FlightAware Transoceanic
Mon 03:42:00 PM 35.4149 -69.2486 348° North 438 504 36,000  Level FlightAware Transoceanic
Mon 03:43:00 PM 35.5402 -69.2819 348° North 438 504 36,000  Level FlightAware Transoceanic
Mon 03:44:00 PM 35.6655 -69.3153 348° North 438 504 36,000  Level FlightAware Transoceanic
Mon 03:45:00 PM 35.7908 -69.3488 348° North 438 504 36,000  Level FlightAware Transoceanic
Mon 03:46:00 PM 35.9161 -69.3824 348° North 438 504 36,000  Level FlightAware Transoceanic
Mon 03:47:00 PM 36.0414 -69.4162 348° North 438 504 36,000  Level FlightAware Transoceanic
Mon 03:48:00 PM 36.1552 -69.4516 346° North  Level FlightAware Approximate
Mon 03:48:39 PM 36.1667 -69.4500 322° Northwest 474 545 36,000  Level New York Oceanic (ODAPS)
Mon 03:58:44 PM 37.3142 -70.5733 330° Northwest 459 528 36,000  Level New York Center
Mon 03:59:00 PM 37.4083 -70.6716 321° Northwest 474 545 36,000  Level FlightAware Transoceanic
Mon 03:59:46 PM 37.4144 -70.6856 318° Northwest 472 543 36,000  Level New York Center
Mon 04:00:00 PM 37.5112 -70.7753 321° Northwest 474 545 36,000  Level FlightAware Transoceanic
Mon 04:00:47 PM 37.5144 -70.7878 321° Northwest 472 543 36,000  Level New York Center
Mon 04:01:00 PM 37.6140 -70.8792 321° Northwest 474 545 36,000  Level FlightAware Transoceanic
Mon 04:01:45 PM 37.6208 -70.8822 325° Northwest 468 539 36,000  Level New York Center
Mon 04:02:00 PM 37.7167 -70.9833 330° Northwest 474 545 36,000  Level FlightAware Transoceanic
Mon 04:02:47 PM 37.7206 -70.9850 321° Northwest 474 545 36,000  Level New York Center
Mon 04:03:00 PM 37.8260 -71.0639 330° Northwest 474 545 36,000  Level FlightAware Transoceanic
Mon 04:03:45 PM 37.8267 -71.0825 324° Northwest 474 545 36,000  Level New York Center
Mon 04:04:45 PM 37.9222 -71.1961 317° Northwest 468 539 36,000  Level New York Center
Mon 04:05:45 PM 38.0156 -71.3103 316° Northwest 468 539 36,000  Level New York Center
Mon 04:06:46 PM 38.1069 -71.4244 316° Northwest 463 533 36,000  Level New York Center
Mon 04:07:44 PM 38.1978 -71.5469 313° West 463 533 36,000  Level New York Center
Mon 04:08:45 PM 38.2931 -71.6511 319° Northwest 463 533 36,000  Level New York Center
Mon 04:09:44 PM 38.3881 -71.7608 318° Northwest 457 526 36,000  Level New York Center
Mon 04:10:46 PM 38.4806 -71.8869 313° West 457 526 36,000  Level New York Center
Mon 04:11:45 PM 38.5733 -72.0025 316° Northwest 462 532 36,000  Level New York Center
Mon 04:12:46 PM 38.6681 -72.1158 317° Northwest 467 537 36,000  Level New York Center
Mon 04:13:44 PM 38.7603 -72.2428 313° West 467 537 36,000 -1,100 Level New York Center
Mon 04:14:46 PM 38.8567 -72.3542 318° Northwest 467 537 33,800 -2,678 Descending New York Center
Mon 04:15:45 PM 38.9508 -72.4819 313° West 472 543 30,600 -3,250 Descending New York Center
Mon 04:16:46 PM 39.0431 -72.5964 316° Northwest 477 549 27,300 -2,773 Descending New York Center
Mon 04:17:44 PM 39.1308 -72.7111 315° West 467 537 25,100 -2,168 Descending New York Center
Mon 04:18:45 PM 39.2144 -72.8178 315° West 446 513 23,000 -2,066 Descending New York Center
Mon 04:19:46 PM 39.2747 -72.9350 304° West 403 464 20,900 -1,815 Descending New York Center
Mon 04:20:44 PM 39.2889 -73.0694 278° West 377 434 19,400 -1,664 Descending New York Center
Mon 04:21:45 PM 39.3264 -73.1756 295° West 377 434 17,600 -1,934 Descending New York Center
Mon 04:22:45 PM 39.4103 -73.2508 325° Northwest 352 405 15,500 -1,983 Descending New York Center
Mon 04:23:46 PM 39.4981 -73.3319 325° Northwest 352 405 13,600 -1,950 Descending New York Center
Mon 04:24:45 PM 39.5736 -73.4047 323° Northwest 352 405 11,600 -1,664 Descending New York Center
Mon 04:25:45 PM 39.6406 -73.4828 318° Northwest 352 405 10,300 -984 Descending New York Center
Mon 04:26:47 PM 39.7181 -73.5586 323° Northwest 352 405 9,600 -655 Descending New York Center
Mon 04:27:44 PM 39.7914 -73.6344 322° Northwest 347 399 9,000 -308 Descending New York Center
Mon 04:28:44 PM 39.8606 -73.7022 323° Northwest 336 387 9,000 45 Level New York Center
Mon 04:29:56 PM 39.9500 -73.8000 320° Northwest 298 343 9,100  Climbing New York TRACON
Mon 04:30:45 PM 39.9817 -73.8592 305° West 294 338 9,000  Descending New York Center
Mon 04:31:45 PM 40.0606 -73.8653 357° North 264 304 9,100 -446 Climbing New York Center
Mon 04:32:46 PM 40.1311 -73.7925 38° Northeast 270 311 8,100 -857 Descending New York Center
Mon 04:33:44 PM 40.1911 -73.7300 39° Northeast 301 346 7,400 -550 Descending New York Center
Mon 04:34:46 PM 40.2681 -73.6569 36° Northeast 307 353 7,000 -200 Descending New York Center
Mon 04:35:44 PM 40.3339 -73.6081 30° Northeast 301 346 7,000  Level New York Center
Mon 04:36:45 PM 40.4244 -73.5600 22° Northeast 301 346 7,000  Level New York Center
Mon 04:37:45 PM 40.4983 -73.5275 18° North 301 346 7,000 -545 Level New York Center
Mon 04:38:46 PM 40.5847 -73.4875 19° North 301 346 5,900 -1,150 Descending New York Center
Mon 04:39:45 PM 40.6561 -73.4547 19° North 301 346 4,700 -1,311 Descending New York Center
Mon 04:40:45 PM 40.7375 -73.4578 358° North 265 305 3,300 -807 Descending New York Center
Mon 04:41:44 PM 40.7800 -73.5061 319° Northwest 236 272 3,100 -397 Descending New York Center
Mon 04:42:46 PM 40.8058 -73.5564 304° West 191 220 2,500 -541 Descending New York Center
Mon 04:43:46 PM 40.7836 -73.6242 247° West 167 192 2,000 -242 Descending New York Center
Mon 04:44:50 PM 40.7500 -73.6833 233° Southwest 173 199 2,000 -290 Level New York TRACON
Mon 04:45:50 PM 40.7000 -73.7167 207° Southwest 160 184 1,400 -650 Descending New York TRACON
Mon 04:46:50 PM 40.6667 -73.7333 201° Southwest 132 152 700 -700 Descending New York TRACON

Login

Don't have an account? Register now (free) for customized features, flight alerts, and more!